createdAt,value
2019-02-23T00:00:55.188Z,103952.30
2019-02-23T00:05:57.084Z,103963.41
2019-02-23T00:10:58.635Z,103956.41
2019-02-23T00:16:00.228Z,103954.27
2019-02-23T00:21:01.765Z,103963.78
2019-02-23T00:26:03.286Z,103961.36
2019-02-23T00:31:05.205Z,103967.52
2019-02-23T00:36:06.765Z,103959.77
2019-02-23T00:41:08.744Z,103960.75
2019-02-23T00:46:10.621Z,103959.46
2019-02-23T00:51:12.237Z,103961.97
2019-02-23T00:56:13.770Z,103963.70
2019-02-23T01:01:15.337Z,103964.16
2019-02-23T01:06:16.847Z,103964.48
2019-02-23T01:11:18.412Z,103941.59
2019-02-23T01:16:19.950Z,103959.20
2019-02-23T01:21:21.468Z,103959.85
2019-02-23T01:26:23.027Z,103967.62
2019-02-23T01:31:24.566Z,103960.28
2019-02-23T01:36:26.137Z,103961.81
2019-02-23T01:41:28.101Z,103957.56
2019-02-23T01:46:29.670Z,103948.86
2019-02-23T01:51:31.266Z,103945.39
2019-02-23T01:56:32.798Z,103944.13
2019-02-23T02:01:34.357Z,103956.08
2019-02-23T02:06:35.911Z,103951.46
2019-02-23T02:11:37.808Z,103952.44
2019-02-23T02:16:39.396Z,103949.86
2019-02-23T02:21:41.260Z,103940.07
2019-02-23T02:26:42.839Z,103940.66
2019-02-23T02:31:44.709Z,103932.73
2019-02-23T02:36:46.268Z,103926.25
2019-02-23T02:41:47.900Z,103922.00
2019-02-23T02:46:49.846Z,103913.48
2019-02-23T02:51:51.355Z,103911.24
2019-02-23T02:56:52.975Z,103909.78
2019-02-23T03:01:54.859Z,103904.02
2019-02-23T03:06:56.409Z,103902.90
2019-02-23T03:11:58.336Z,103901.00
2019-02-23T03:16:59.899Z,103901.70
2019-02-23T03:22:01.490Z,103906.14
2019-02-23T03:27:03.512Z,103904.84
2019-02-23T03:32:05.029Z,103908.38
2019-02-23T03:37:06.640Z,103907.85
2019-02-23T03:42:08.245Z,103905.99
2019-02-23T03:47:09.906Z,103913.25
2019-02-23T03:52:11.561Z,103905.88
2019-02-23T03:57:13.186Z,103904.39
2019-02-23T04:02:15.548Z,103900.33
2019-02-23T04:07:17.426Z,103906.88
2019-02-23T04:12:18.970Z,103903.59
2019-02-23T04:17:20.523Z,103916.47
2019-02-23T04:22:22.412Z,103902.95
2019-02-23T04:27:24.442Z,103912.48
2019-02-23T04:32:25.968Z,103914.41
2019-02-23T04:37:27.525Z,103916.73
2019-02-23T04:42:29.184Z,103910.47
2019-02-23T04:47:31.140Z,103919.98
2019-02-23T04:52:32.706Z,103921.16
2019-02-23T04:57:34.334Z,103923.23
2019-02-23T05:02:35.866Z,103923.69
2019-02-23T05:07:37.420Z,103931.21
2019-02-23T05:12:38.958Z,103930.67
2019-02-23T05:17:40.911Z,103937.05
2019-02-23T05:22:42.456Z,103937.84
2019-02-23T05:27:44.106Z,103930.98
2019-02-23T05:32:45.640Z,103940.27
2019-02-23T05:37:47.223Z,103941.79
2019-02-23T05:43:00.100Z,103934.41
2019-02-23T05:47:52.351Z,103941.51
2019-02-23T05:52:53.966Z,103935.63
2019-02-23T05:57:55.611Z,103932.52
2019-02-23T06:02:57.237Z,103937.59
2019-02-23T06:07:59.461Z,103935.42
2019-02-23T06:13:01.021Z,103946.41
2019-02-23T06:18:02.673Z,103946.78
2019-02-23T06:23:04.467Z,103950.16
2019-02-23T06:28:05.984Z,103954.65
2019-02-23T06:33:07.620Z,103951.89
2019-02-23T06:38:09.297Z,103954.66
2019-02-23T06:43:10.825Z,103955.95
2019-02-23T06:48:12.425Z,103953.56
2019-02-23T06:53:14.435Z,103957.09
2019-02-23T06:58:16.533Z,103954.13
2019-02-23T07:03:18.200Z,103949.07
2019-02-23T07:08:19.816Z,103953.34
2019-02-23T07:13:21.379Z,103954.72
2019-02-23T07:18:23.076Z,103959.32
2019-02-23T07:23:24.654Z,103961.50
2019-02-23T07:28:26.228Z,103965.01
2019-02-23T07:33:32.989Z,103968.84
2019-02-23T07:38:31.319Z,103977.16
2019-02-23T07:43:32.993Z,103976.20
2019-02-23T07:48:34.531Z,103969.46
2019-02-23T07:53:36.197Z,103964.39
2019-02-23T07:58:38.185Z,103959.17
2019-02-23T08:03:39.760Z,103968.77
2019-02-23T08:08:41.461Z,103971.14
2019-02-23T08:13:43.197Z,103969.97
2019-02-23T08:18:44.755Z,103960.81
2019-02-23T08:23:46.329Z,103962.02
2019-02-23T08:28:47.888Z,103959.73
2019-02-23T08:33:49.447Z,103952.20
2019-02-23T08:38:51.038Z,103948.39
2019-02-23T08:43:52.674Z,103950.56
2019-02-23T08:48:54.344Z,103937.66
2019-02-23T08:53:55.901Z,103942.98
2019-02-23T08:58:57.551Z,103937.98
2019-02-23T09:03:59.085Z,103929.93
2019-02-23T09:09:00.653Z,103925.98
2019-02-23T09:14:02.136Z,103921.23
2019-02-23T09:19:03.862Z,103915.50
2019-02-23T09:24:05.501Z,103919.09
2019-02-23T09:29:07.177Z,103926.50
2019-02-23T09:34:08.889Z,103919.67
2019-02-23T09:39:10.456Z,103919.48
2019-02-23T09:44:12.195Z,103913.36
2019-02-23T09:49:14.190Z,103922.98
2019-02-23T09:54:15.734Z,103923.25
2019-02-23T09:59:17.300Z,103924.78
2019-02-23T10:04:19.260Z,103918.45
2019-02-23T10:09:21.007Z,103915.55
2019-02-23T10:14:22.645Z,103909.06
2019-02-23T10:19:24.242Z,103908.33
2019-02-23T10:24:25.808Z,103919.42
2019-02-23T10:29:27.407Z,103924.22
2019-02-23T10:34:29.012Z,103926.64
2019-02-23T10:39:30.952Z,103932.59
2019-02-23T10:44:32.482Z,103928.39
2019-02-23T10:49:35.108Z,103932.80
2019-02-23T10:54:36.674Z,103940.03
2019-02-23T10:59:38.268Z,103932.13
2019-02-23T11:04:39.819Z,103924.43
2019-02-23T11:09:41.411Z,103920.22
2019-02-23T11:14:42.897Z,103913.52
2019-02-23T11:19:44.758Z,103915.20
2019-02-23T11:24:46.570Z,103910.96
2019-02-23T11:29:48.204Z,103906.25
2019-02-23T11:34:50.351Z,103904.09
2019-02-23T11:39:52.321Z,103894.22
2019-02-23T11:44:53.892Z,103895.90
2019-02-23T11:49:55.581Z,103897.37
2019-02-23T11:54:57.444Z,103887.41
2019-02-23T11:59:59.126Z,103871.33
2019-02-23T12:05:00.704Z,103875.88
2019-02-23T12:10:02.397Z,103868.33
2019-02-23T12:15:04.252Z,103863.27
2019-02-23T12:20:05.990Z,103868.64
2019-02-23T12:25:07.620Z,103863.63
2019-02-23T12:30:09.242Z,103865.70
2019-02-23T12:35:11.281Z,103853.98
2019-02-23T12:40:12.971Z,103849.98
2019-02-23T12:45:14.899Z,103837.76
2019-02-23T12:50:16.620Z,103835.66
2019-02-23T12:55:18.534Z,103830.66
2019-02-23T13:00:20.366Z,103832.38
2019-02-23T13:05:21.904Z,103836.66
2019-02-23T13:10:23.546Z,103819.48
2019-02-23T13:15:36.590Z,103817.44
2019-02-23T13:21:23.007Z,103818.08
2019-02-23T13:26:55.771Z,103811.05
2019-02-23T13:32:39.919Z,103793.84
2019-02-23T13:38:10.276Z,103795.74
2019-02-23T13:43:43.021Z,103795.12
2019-02-23T13:49:17.726Z,103793.36
2019-02-23T13:55:04.152Z,103794.89
2019-02-23T14:00:53.547Z,103795.02
2019-02-23T14:06:21.610Z,103795.14
2019-02-23T14:11:52.671Z,103785.61
2019-02-23T14:17:35.631Z,103779.40
2019-02-23T14:23:30.961Z,103777.39
2019-02-23T14:29:06.090Z,103778.02
2019-02-23T14:35:03.128Z,103779.72
2019-02-23T14:40:58.428Z,103777.50
2019-02-23T14:46:37.543Z,103773.45
2019-02-23T14:52:14.692Z,103770.30
2019-02-23T14:57:39.548Z,103769.17
2019-02-23T15:03:24.059Z,103766.66
2019-02-23T15:09:00.696Z,103766.77
2019-02-23T15:14:33.987Z,103766.23
2019-02-23T15:20:07.071Z,103757.98
2019-02-23T15:25:59.043Z,103756.58
2019-02-23T15:31:29.144Z,103761.13
2019-02-23T15:37:01.028Z,103756.55
2019-02-23T15:42:44.596Z,103755.25
2019-02-23T15:48:14.928Z,103751.59
2019-02-23T15:53:17.383Z,103743.55
2019-02-23T15:58:18.946Z,103740.49
2019-02-23T16:03:20.521Z,103746.58
2019-02-23T16:08:22.076Z,103752.90
2019-02-23T16:13:23.657Z,103750.36
2019-02-23T16:18:25.239Z,103741.80
2019-02-23T16:23:36.750Z,103744.73
2019-02-23T16:28:30.372Z,103742.38
2019-02-23T16:33:32.139Z,103745.56
2019-02-23T16:38:34.305Z,103743.53
2019-02-23T16:43:35.892Z,103746.52
2019-02-23T16:48:37.443Z,103739.33
2019-02-23T16:53:39.067Z,103751.70
2019-02-23T16:58:40.714Z,103747.28
2019-02-23T17:03:42.577Z,103751.23
2019-02-23T17:08:44.203Z,103744.13
2019-02-23T17:13:46.126Z,103744.34
2019-02-23T17:18:47.850Z,103743.98
2019-02-23T17:23:49.509Z,103748.37
2019-02-23T17:28:51.689Z,103749.42
2019-02-23T17:33:53.423Z,103743.38
2019-02-23T17:38:55.103Z,103755.70
2019-02-23T17:43:57.666Z,103758.02
2019-02-23T17:48:59.716Z,103755.94
2019-02-23T17:54:01.674Z,103759.67
2019-02-23T17:59:03.883Z,103750.87
2019-02-23T18:04:05.657Z,103746.18
2019-02-23T18:09:07.629Z,103750.23
2019-02-23T18:14:09.287Z,103748.00
2019-02-23T18:19:10.872Z,103747.58
2019-02-23T18:24:14.446Z,103744.83
2019-02-23T18:29:16.188Z,103749.92
2019-02-23T18:34:17.886Z,103741.61
2019-02-23T18:39:19.522Z,103738.91
2019-02-23T18:44:21.167Z,103743.75
2019-02-23T18:49:22.757Z,103734.77
2019-02-23T18:54:24.445Z,103740.23
2019-02-23T18:59:26.493Z,103741.81
2019-02-23T19:04:28.729Z,103747.39
2019-02-23T19:09:30.440Z,103746.80
2019-02-23T19:14:32.357Z,103740.73
2019-02-23T19:19:34.304Z,103744.44
2019-02-23T19:24:36.253Z,103744.72
2019-02-23T19:29:37.871Z,103738.10
2019-02-23T19:34:41.560Z,103744.75
2019-02-23T19:39:43.247Z,103748.25
2019-02-23T19:44:45.152Z,103752.84
2019-02-23T19:49:48.049Z,103748.22
2019-02-23T19:54:49.935Z,103753.25
2019-02-23T19:59:51.684Z,103752.59
2019-02-23T20:04:53.388Z,103754.61
2019-02-23T20:09:54.922Z,103751.80
2019-02-23T20:14:56.582Z,103755.86
2019-02-23T20:19:58.178Z,103760.72
2019-02-23T20:24:59.844Z,103762.95
2019-02-23T20:30:01.939Z,103764.19
2019-02-23T20:35:03.751Z,103764.66
2019-02-23T20:40:05.824Z,103764.23
2019-02-23T20:45:07.436Z,103771.38
2019-02-23T20:50:09.238Z,103778.53
2019-02-23T20:55:10.952Z,103775.16
2019-02-23T21:00:12.710Z,103775.78
2019-02-23T21:05:14.795Z,103772.85
2019-02-23T21:10:16.408Z,103780.75
2019-02-23T21:15:18.582Z,103777.41
2019-02-23T21:20:20.281Z,103773.35
2019-02-23T21:25:21.880Z,103775.41
2019-02-23T21:30:23.779Z,103765.27
2019-02-23T21:35:25.315Z,103767.12
2019-02-23T21:40:27.032Z,103779.45
2019-02-23T21:45:28.607Z,103773.53
2019-02-23T21:50:30.418Z,103773.77
2019-02-23T21:55:32.130Z,103778.67
2019-02-23T22:00:34.287Z,103778.20
2019-02-23T22:05:36.051Z,103777.95
2019-02-23T22:10:37.574Z,103774.70
2019-02-23T22:15:39.660Z,103773.48
2019-02-23T22:20:41.240Z,103778.20
2019-02-23T22:25:42.919Z,103770.66
2019-02-23T22:30:44.454Z,103778.16
2019-02-23T22:35:46.288Z,103774.66
2019-02-23T22:40:48.115Z,103781.98
2019-02-23T22:45:49.691Z,103783.57
2019-02-23T22:50:51.676Z,103783.05
2019-02-23T22:55:53.365Z,103791.67
2019-02-23T23:00:55.336Z,103794.14
2019-02-23T23:05:57.064Z,103791.95
2019-02-23T23:10:58.624Z,103783.66
2019-02-23T23:16:00.222Z,103783.05
2019-02-23T23:21:01.791Z,103790.45
2019-02-23T23:26:03.473Z,103790.16
2019-02-23T23:31:05.422Z,103783.91
2019-02-23T23:36:07.420Z,103776.55
2019-02-23T23:41:09.005Z,103780.95
2019-02-23T23:46:10.727Z,103772.14
2019-02-23T23:51:12.562Z,103776.09
2019-02-23T23:56:14.115Z,103765.89
